Uman, Ukraine
Current Conditions -  °F | °C
As of 11:30 AM on Thursday 23 Oct 2014 (Local Time) from UKKK Reporting Station
Broken Clouds Broken Clouds  
Wind Chill: 25°   Ceiling: 1800
Heat Index: 36°   Visibility: 6mi
Dew Point: 28°   Wind: 18mph
Humidity: 75%   Direction: 60°ENE
Pressure: 30.09"   Gusts: NA
Location:  48.75°N, 30.22°E
Report Text: UKKK 230830Z 06008MPS 9999 BKN018 BKN033 02/M02 Q1019 08CLRD70 TEMPO 05010G16MPS
Loading
Personal Weather Stations






























Interactive Weather Map
Tropical Storm Tracking
New forecast layout! Learn more

10-Day Weather Forecast

Advertisements
Track Severe Weather on mobile